sensor_id;sensor_type;location;lat;lon;timestamp;pressure;altitude;pressure_sealevel;temperature;humidity
65534;BME280;53640;55.838;37.184;2023-06-14T00:02:18;99532.28;;;13.36;38.94
65534;BME280;53640;55.838;37.184;2023-06-14T00:04:46;99563.03;;;13.49;38.96
65534;BME280;53640;55.838;37.184;2023-06-14T00:07:15;99534.84;;;13.31;38.80
65534;BME280;53640;55.838;37.184;2023-06-14T00:09:44;99565.75;;;13.49;38.74
65534;BME280;53640;55.838;37.184;2023-06-14T00:12:11;99539.44;;;13.31;39.04
65534;BME280;53640;55.838;37.184;2023-06-14T00:14:38;99571.44;;;13.47;39.26
65534;BME280;53640;55.838;37.184;2023-06-14T00:17:07;99570.72;;;13.40;38.96
65534;BME280;53640;55.838;37.184;2023-06-14T00:19:34;99539.19;;;13.20;39.07
65534;BME280;53640;55.838;37.184;2023-06-14T00:22:01;99576.81;;;13.35;39.45
65534;BME280;53640;55.838;37.184;2023-06-14T00:24:29;99539.75;;;13.11;39.22
65534;BME280;53640;55.838;37.184;2023-06-14T00:26:58;99555.72;;;13.19;39.60
65534;BME280;53640;55.838;37.184;2023-06-14T00:29:25;99519.22;;;12.96;39.49
65534;BME280;53640;55.838;37.184;2023-06-14T00:31:52;99565.06;;;13.23;39.46
65534;BME280;53640;55.838;37.184;2023-06-14T00:34:19;99544.69;;;13.02;39.37
65534;BME280;53640;55.838;37.184;2023-06-14T00:36:46;99540.06;;;13.03;39.53
65534;BME280;53640;55.838;37.184;2023-06-14T00:39:14;99516.72;;;12.83;39.73
65534;BME280;53640;55.838;37.184;2023-06-14T00:41:40;99555.69;;;13.07;39.48
65534;BME280;53640;55.838;37.184;2023-06-14T00:44:08;99582.78;;;13.14;39.78
65534;BME280;53640;55.838;37.184;2023-06-14T00:46:34;99570.91;;;13.08;39.67
65534;BME280;53640;55.838;37.184;2023-06-14T00:49:01;99573.50;;;13.03;39.84
65534;BME280;53640;55.838;37.184;2023-06-14T00:51:28;99557.97;;;12.92;40.05
65534;BME280;53640;55.838;37.184;2023-06-14T00:53:56;99531.47;;;12.69;40.21
65534;BME280;53640;55.838;37.184;2023-06-14T00:56:23;99565.59;;;12.83;39.70
65534;BME280;53640;55.838;37.184;2023-06-14T00:58:51;99576.63;;;12.88;40.33
65534;BME280;53640;55.838;37.184;2023-06-14T01:01:18;99573.75;;;12.83;40.41
65534;BME280;53640;55.838;37.184;2023-06-14T01:03:45;99543.25;;;12.63;40.08
65534;BME280;53640;55.838;37.184;2023-06-14T01:06:19;99569.63;;;12.74;40.72
65534;BME280;53640;55.838;37.184;2023-06-14T01:11:57;99561.81;;;12.66;40.61
65534;BME280;53640;55.838;37.184;2023-06-14T01:14:27;99540.06;;;12.47;40.66
65534;BME280;53640;55.838;37.184;2023-06-14T01:16:58;99540.53;;;12.44;40.76
65534;BME280;53640;55.838;37.184;2023-06-14T01:19:26;99565.88;;;12.57;41.07
65534;BME280;53640;55.838;37.184;2023-06-14T01:22:00;99554.25;;;12.50;40.84
65534;BME280;53640;55.838;37.184;2023-06-14T01:24:27;99556.75;;;12.51;40.74
65534;BME280;53640;55.838;37.184;2023-06-14T01:27:04;99523.19;;;12.27;40.90
65534;BME280;53640;55.838;37.184;2023-06-14T01:29:33;99546.50;;;12.35;41.50
65534;BME280;53640;55.838;37.184;2023-06-14T01:32:02;99572.22;;;12.51;41.23
65534;BME280;53640;55.838;37.184;2023-06-14T01:34:32;99574.47;;;12.54;41.33
65534;BME280;53640;55.838;37.184;2023-06-14T01:37:00;99530.72;;;12.25;41.16
65534;BME280;53640;55.838;37.184;2023-06-14T01:39:28;99573.03;;;12.51;41.33
65534;BME280;53640;55.838;37.184;2023-06-14T01:41:59;99549.72;;;12.25;41.32
65534;BME280;53640;55.838;37.184;2023-06-14T01:44:28;99584.78;;;12.45;41.35
65534;BME280;53640;55.838;37.184;2023-06-14T01:46:56;99541.81;;;12.23;41.48
65534;BME280;53640;55.838;37.184;2023-06-14T01:49:23;99540.97;;;12.23;41.62
65534;BME280;53640;55.838;37.184;2023-06-14T01:51:50;99555.50;;;12.29;41.53
65534;BME280;53640;55.838;37.184;2023-06-14T01:54:16;99515.50;;;11.99;41.65
65534;BME280;53640;55.838;37.184;2023-06-14T01:56:46;99537.50;;;12.16;41.89
65534;BME280;53640;55.838;37.184;2023-06-14T01:59:13;99520.88;;;12.06;42.05
65534;BME280;53640;55.838;37.184;2023-06-14T02:01:43;99535.66;;;12.10;41.68
65534;BME280;53640;55.838;37.184;2023-06-14T02:04:12;99548.94;;;12.18;41.82
65534;BME280;53640;55.838;37.184;2023-06-14T02:06:41;99488.53;;;11.86;41.88
65534;BME280;53640;55.838;37.184;2023-06-14T02:09:08;99503.91;;;11.92;41.90
65534;BME280;53640;55.838;37.184;2023-06-14T02:11:38;99481.66;;;11.83;41.81
65534;BME280;53640;55.838;37.184;2023-06-14T02:14:09;99542.00;;;12.22;41.43
65534;BME280;53640;55.838;37.184;2023-06-14T02:16:38;99574.78;;;12.45;41.62
65534;BME280;53640;55.838;37.184;2023-06-14T02:19:06;99581.25;;;12.44;41.52
65534;BME280;53640;55.838;37.184;2023-06-14T02:21:37;99544.81;;;12.34;41.30
65534;BME280;53640;55.838;37.184;2023-06-14T02:24:05;99515.09;;;12.20;41.66
65534;BME280;53640;55.838;37.184;2023-06-14T02:26:32;99560.72;;;12.48;41.41
65534;BME280;53640;55.838;37.184;2023-06-14T02:29:00;99549.28;;;12.46;41.25
65534;BME280;53640;55.838;37.184;2023-06-14T02:31:28;99554.03;;;12.51;41.23
65534;BME280;53640;55.838;37.184;2023-06-14T02:33:56;99577.66;;;12.69;41.14
65534;BME280;53640;55.838;37.184;2023-06-14T02:36:24;99512.31;;;12.27;41.40
65534;BME280;53640;55.838;37.184;2023-06-14T02:38:53;99468.56;;;11.98;41.48
65534;BME280;53640;55.838;37.184;2023-06-14T02:41:22;99520.59;;;12.32;41.49
65534;BME280;53640;55.838;37.184;2023-06-14T02:43:49;99460.88;;;11.95;41.60
65534;BME280;53640;55.838;37.184;2023-06-14T02:46:16;99437.50;;;11.76;41.44
65534;BME280;53640;55.838;37.184;2023-06-14T02:48:44;99511.13;;;12.23;41.65
65534;BME280;53640;55.838;37.184;2023-06-14T02:51:12;99548.38;;;12.53;41.31
65534;BME280;53640;55.838;37.184;2023-06-14T02:53:40;99528.69;;;12.39;41.26
65534;BME280;53640;55.838;37.184;2023-06-14T02:56:07;99548.16;;;12.54;41.74
65534;BME280;53640;55.838;37.184;2023-06-14T02:58:36;99510.19;;;12.29;41.49
65534;BME280;53640;55.838;37.184;2023-06-14T03:01:05;99477.63;;;12.11;41.15
65534;BME280;53640;55.838;37.184;2023-06-14T03:03:36;99600.63;;;12.91;41.65
65534;BME280;53640;55.838;37.184;2023-06-14T03:06:03;99539.00;;;12.48;41.64
65534;BME280;53640;55.838;37.184;2023-06-14T03:08:33;99572.66;;;12.66;41.76
65534;BME280;53640;55.838;37.184;2023-06-14T03:11:08;99484.50;;;12.13;41.77
65534;BME280;53640;55.838;37.184;2023-06-14T03:13:36;99500.16;;;12.30;41.73
65534;BME280;53640;55.838;37.184;2023-06-14T03:16:05;99526.44;;;12.54;42.02
65534;BME280;53640;55.838;37.184;2023-06-14T03:18:37;99509.63;;;12.45;41.82
65534;BME280;53640;55.838;37.184;2023-06-14T03:21:06;99582.78;;;12.95;41.78
65534;BME280;53640;55.838;37.184;2023-06-14T03:23:34;99509.06;;;12.55;42.06
65534;BME280;53640;55.838;37.184;2023-06-14T03:26:06;99583.31;;;13.04;42.10
65534;BME280;53640;55.838;37.184;2023-06-14T03:28:33;99616.59;;;13.18;42.06
65534;BME280;53640;55.838;37.184;2023-06-14T03:31:00;99555.31;;;12.85;42.01
65534;BME280;53640;55.838;37.184;2023-06-14T03:33:32;99537.00;;;12.81;42.01
65534;BME280;53640;55.838;37.184;2023-06-14T03:35:58;99568.00;;;12.91;42.07
65534;BME280;53640;55.838;37.184;2023-06-14T03:38:27;99562.88;;;13.02;42.17
65534;BME280;53640;55.838;37.184;2023-06-14T03:40:56;99565.81;;;13.00;42.32
65534;BME280;53640;55.838;37.184;2023-06-14T03:43:24;99542.03;;;12.95;41.98
65534;BME280;53640;55.838;37.184;2023-06-14T03:45:51;99541.44;;;12.93;41.76
65534;BME280;53640;55.838;37.184;2023-06-14T03:48:19;99552.78;;;13.20;41.73
65534;BME280;53640;55.838;37.184;2023-06-14T03:50:46;99570.09;;;13.38;41.64
65534;BME280;53640;55.838;37.184;2023-06-14T03:53:14;99597.50;;;13.66;41.57
65534;BME280;53640;55.838;37.184;2023-06-14T03:55:45;99588.16;;;13.62;41.48
65534;BME280;53640;55.838;37.184;2023-06-14T03:58:12;99597.31;;;13.80;41.57
65534;BME280;53640;55.838;37.184;2023-06-14T04:00:39;99555.38;;;13.57;41.59
65534;BME280;53640;55.838;37.184;2023-06-14T04:03:06;99575.56;;;13.80;41.05
65534;BME280;53640;55.838;37.184;2023-06-14T04:05:32;99531.03;;;13.62;41.20
65534;BME280;53640;55.838;37.184;2023-06-14T04:08:00;99571.81;;;13.92;40.76
65534;BME280;53640;55.838;37.184;2023-06-14T04:10:27;99585.53;;;14.09;40.43
65534;BME280;53640;55.838;37.184;2023-06-14T04:12:55;99613.59;;;14.22;40.21
65534;BME280;53640;55.838;37.184;2023-06-14T04:15:22;99540.19;;;13.91;40.48
65534;BME280;53640;55.838;37.184;2023-06-14T04:17:52;99560.31;;;14.14;40.34
65534;BME280;53640;55.838;37.184;2023-06-14T04:20:23;99526.72;;;13.97;39.99
65534;BME280;53640;55.838;37.184;2023-06-14T04:22:52;99465.63;;;13.69;39.90
65534;BME280;53640;55.838;37.184;2023-06-14T04:25:20;99596.81;;;14.60;39.91
65534;BME280;53640;55.838;37.184;2023-06-14T04:27:48;99586.94;;;14.59;39.71
65534;BME280;53640;55.838;37.184;2023-06-14T04:30:16;99589.13;;;14.69;39.44
65534;BME280;53640;55.838;37.184;2023-06-14T04:32:50;99565.75;;;14.61;39.48
65534;BME280;53640;55.838;37.184;2023-06-14T04:35:19;99600.09;;;14.85;39.07
65534;BME280;53640;55.838;37.184;2023-06-14T04:37:47;99580.09;;;14.80;39.19
65534;BME280;53640;55.838;37.184;2023-06-14T04:40:13;99582.69;;;14.86;39.41
65534;BME280;53640;55.838;37.184;2023-06-14T04:42:42;99587.28;;;14.98;38.88
65534;BME280;53640;55.838;37.184;2023-06-14T04:45:13;99498.41;;;14.45;38.66
65534;BME280;53640;55.838;37.184;2023-06-14T04:47:43;99593.88;;;15.13;38.50
65534;BME280;53640;55.838;37.184;2023-06-14T04:50:11;99522.75;;;14.75;38.39
65534;BME280;53640;55.838;37.184;2023-06-14T04:52:40;99604.00;;;15.30;37.82
65534;BME280;53640;55.838;37.184;2023-06-14T04:55:10;99591.09;;;15.25;38.20
65534;BME280;53640;55.838;37.184;2023-06-14T04:57:42;99572.47;;;15.22;37.66
65534;BME280;53640;55.838;37.184;2023-06-14T05:00:09;99592.47;;;15.40;37.78
65534;BME280;53640;55.838;37.184;2023-06-14T05:02:37;99577.50;;;15.42;37.98
65534;BME280;53640;55.838;37.184;2023-06-14T05:05:29;99582.47;;;15.45;37.86
65534;BME280;53640;55.838;37.184;2023-06-14T05:07:56;99586.31;;;15.61;37.31
65534;BME280;53640;55.838;37.184;2023-06-14T05:10:22;99581.53;;;15.68;37.23
65534;BME280;53640;55.838;37.184;2023-06-14T05:12:48;99553.00;;;15.59;37.46
65534;BME280;53640;55.838;37.184;2023-06-14T05:15:19;99609.28;;;15.94;36.33
65534;BME280;53640;55.838;37.184;2023-06-14T05:17:46;99586.53;;;15.88;36.05
65534;BME280;53640;55.838;37.184;2023-06-14T05:20:19;99603.25;;;16.08;36.48
65534;BME280;53640;55.838;37.184;2023-06-14T05:22:45;99554.59;;;15.89;35.73
65534;BME280;53640;55.838;37.184;2023-06-14T05:25:13;99582.31;;;16.14;35.51
65534;BME280;53640;55.838;37.184;2023-06-14T05:27:39;99576.44;;;16.22;35.44
65534;BME280;53640;55.838;37.184;2023-06-14T05:30:13;99555.56;;;16.16;34.94
65534;BME280;53640;55.838;37.184;2023-06-14T05:32:48;99510.25;;;15.98;34.83
65534;BME280;53640;55.838;37.184;2023-06-14T05:35:15;99566.25;;;16.34;35.05
65534;BME280;53640;55.838;37.184;2023-06-14T05:37:43;99486.09;;;15.90;34.81
65534;BME280;53640;55.838;37.184;2023-06-14T05:40:10;99533.13;;;16.31;34.69
65534;BME280;53640;55.838;37.184;2023-06-14T05:42:37;99568.88;;;16.63;33.62
65534;BME280;53640;55.838;37.184;2023-06-14T05:45:04;99591.91;;;16.89;33.96
65534;BME280;53640;55.838;37.184;2023-06-14T05:47:32;99578.66;;;16.81;33.31
65534;BME280;53640;55.838;37.184;2023-06-14T05:49:59;99596.16;;;17.02;33.58
65534;BME280;53640;55.838;37.184;2023-06-14T05:52:25;99549.47;;;16.87;32.96
65534;BME280;53640;55.838;37.184;2023-06-14T05:54:52;99570.44;;;17.03;32.73
65534;BME280;53640;55.838;37.184;2023-06-14T05:57:18;99604.75;;;17.33;32.45
65534;BME280;53640;55.838;37.184;2023-06-14T05:59:45;99539.84;;;17.06;32.61
65534;BME280;53640;55.838;37.184;2023-06-14T06:02:11;99602.75;;;17.50;32.79
65534;BME280;53640;55.838;37.184;2023-06-14T06:04:38;99561.78;;;17.33;32.14
65534;BME280;53640;55.838;37.184;2023-06-14T06:07:06;99567.69;;;17.47;31.85
65534;BME280;53640;55.838;37.184;2023-06-14T06:09:35;99483.03;;;17.13;30.84
65534;BME280;53640;55.838;37.184;2023-06-14T06:12:02;99577.53;;;17.75;30.53
65534;BME280;53640;55.838;37.184;2023-06-14T06:14:30;99534.56;;;17.48;30.14
65534;BME280;53640;55.838;37.184;2023-06-14T06:16:56;99522.00;;;17.52;30.27
65534;BME280;53640;55.838;37.184;2023-06-14T06:19:23;99551.75;;;17.71;30.55
65534;BME280;53640;55.838;37.184;2023-06-14T06:21:57;99593.41;;;18.05;29.96
65534;BME280;53640;55.838;37.184;2023-06-14T06:24:23;99551.13;;;17.91;30.94
65534;BME280;53640;55.838;37.184;2023-06-14T06:26:49;99562.25;;;18.11;30.59
65534;BME280;53640;55.838;37.184;2023-06-14T06:29:17;99545.22;;;18.09;29.84
65534;BME280;53640;55.838;37.184;2023-06-14T06:31:44;99600.63;;;18.54;29.43
65534;BME280;53640;55.838;37.184;2023-06-14T06:34:12;99571.78;;;18.46;28.94
65534;BME280;53640;55.838;37.184;2023-06-14T06:36:41;99589.53;;;18.70;28.87
65534;BME280;53640;55.838;37.184;2023-06-14T06:39:08;99598.03;;;18.74;27.39
65534;BME280;53640;55.838;37.184;2023-06-14T06:41:38;99589.84;;;18.79;27.40
65534;BME280;53640;55.838;37.184;2023-06-14T06:44:06;99581.09;;;18.87;27.93
65534;BME280;53640;55.838;37.184;2023-06-14T06:46:33;99569.31;;;18.92;28.04
65534;BME280;53640;55.838;37.184;2023-06-14T06:49:03;99546.25;;;18.88;26.34
65534;BME280;53640;55.838;37.184;2023-06-14T06:51:31;99575.44;;;19.14;25.73
65534;BME280;53640;55.838;37.184;2023-06-14T06:53:57;99532.28;;;18.89;26.33
65534;BME280;53640;55.838;37.184;2023-06-14T06:56:24;99535.59;;;18.96;25.61
65534;BME280;53640;55.838;37.184;2023-06-14T06:58:50;99533.69;;;19.02;25.97
65534;BME280;53640;55.838;37.184;2023-06-14T07:01:18;99546.91;;;19.26;25.85
65534;BME280;53640;55.838;37.184;2023-06-14T07:03:47;99562.91;;;19.39;25.72
65534;BME280;53640;55.838;37.184;2023-06-14T07:06:14;99569.53;;;19.53;25.77
65534;BME280;53640;55.838;37.184;2023-06-14T07:08:41;99560.75;;;19.56;25.46
65534;BME280;53640;55.838;37.184;2023-06-14T07:11:07;99563.50;;;19.61;26.10
65534;BME280;53640;55.838;37.184;2023-06-14T07:13:34;99517.91;;;19.45;25.96
65534;BME280;53640;55.838;37.184;2023-06-14T07:16:04;99576.69;;;20.00;25.57
65534;BME280;53640;55.838;37.184;2023-06-14T07:18:31;99546.47;;;19.95;26.10
65534;BME280;53640;55.838;37.184;2023-06-14T07:20:58;99536.03;;;20.02;25.68
65534;BME280;53640;55.838;37.184;2023-06-14T07:23:24;99562.41;;;20.29;25.46
65534;BME280;53640;55.838;37.184;2023-06-14T07:25:52;99562.41;;;20.34;24.80
65534;BME280;53640;55.838;37.184;2023-06-14T07:28:20;99555.53;;;20.36;25.17
65534;BME280;53640;55.838;37.184;2023-06-14T07:30:47;99556.06;;;20.43;24.79
65534;BME280;53640;55.838;37.184;2023-06-14T07:33:15;99549.44;;;20.50;24.39
65534;BME280;53640;55.838;37.184;2023-06-14T07:35:42;99563.16;;;20.70;24.39
65534;BME280;53640;55.838;37.184;2023-06-14T07:38:08;99569.72;;;20.74;24.37
65534;BME280;53640;55.838;37.184;2023-06-14T07:40:35;99548.84;;;20.68;24.27
65534;BME280;53640;55.838;37.184;2023-06-14T07:43:01;99569.44;;;20.76;24.23
65534;BME280;53640;55.838;37.184;2023-06-14T07:45:30;99527.94;;;20.67;24.12
65534;BME280;53640;55.838;37.184;2023-06-14T07:47:57;99544.13;;;20.89;24.27
65534;BME280;53640;55.838;37.184;2023-06-14T07:50:24;99542.16;;;20.95;23.45
65534;BME280;53640;55.838;37.184;2023-06-14T07:52:50;99558.88;;;21.08;22.82
65534;BME280;53640;55.838;37.184;2023-06-14T07:55:17;99571.78;;;21.18;23.78
65534;BME280;53640;55.838;37.184;2023-06-14T07:57:43;99542.34;;;21.13;23.01
65534;BME280;53640;55.838;37.184;2023-06-14T08:00:10;99539.53;;;21.24;22.75
65534;BME280;53640;55.838;37.184;2023-06-14T08:02:42;99564.75;;;21.46;22.21
65534;BME280;53640;55.838;37.184;2023-06-14T08:05:10;99558.13;;;21.52;22.31
65534;BME280;53640;55.838;37.184;2023-06-14T08:07:40;99560.22;;;21.66;22.17
65534;BME280;53640;55.838;37.184;2023-06-14T08:10:07;99558.25;;;21.71;22.96
65534;BME280;53640;55.838;37.184;2023-06-14T08:12:33;99566.91;;;21.94;22.70
65534;BME280;53640;55.838;37.184;2023-06-14T08:15:01;99553.38;;;21.97;22.39
65534;BME280;53640;55.838;37.184;2023-06-14T08:17:31;99537.91;;;21.96;22.41
65534;BME280;53640;55.838;37.184;2023-06-14T08:19:58;99564.47;;;22.21;21.45
65534;BME280;53640;55.838;37.184;2023-06-14T08:22:26;99541.59;;;22.21;21.22
65534;BME280;53640;55.838;37.184;2023-06-14T08:24:54;99545.66;;;22.28;21.22
65534;BME280;53640;55.838;37.184;2023-06-14T08:27:21;99539.59;;;22.26;21.85
65534;BME280;53640;55.838;37.184;2023-06-14T08:29:48;99553.41;;;22.50;21.55
65534;BME280;53640;55.838;37.184;2023-06-14T08:32:16;99554.81;;;22.72;21.09
65534;BME280;53640;55.838;37.184;2023-06-14T08:34:42;99495.34;;;22.36;20.98
65534;BME280;53640;55.838;37.184;2023-06-14T08:37:08;99561.19;;;22.96;21.07
65534;BME280;53640;55.838;37.184;2023-06-14T08:39:35;99538.78;;;22.98;21.09
65534;BME280;53640;55.838;37.184;2023-06-14T08:42:03;99550.06;;;23.01;20.43
65534;BME280;53640;55.838;37.184;2023-06-14T08:44:33;99537.63;;;23.23;20.40
65534;BME280;53640;55.838;37.184;2023-06-14T08:47:02;99554.00;;;23.57;20.95
65534;BME280;53640;55.838;37.184;2023-06-14T08:49:32;99570.09;;;23.88;20.72
65534;BME280;53640;55.838;37.184;2023-06-14T08:52:01;99558.75;;;24.08;20.18
65534;BME280;53640;55.838;37.184;2023-06-14T08:54:30;99552.66;;;24.39;19.98
65534;BME280;53640;55.838;37.184;2023-06-14T08:56:57;99547.34;;;24.42;20.14
65534;BME280;53640;55.838;37.184;2023-06-14T08:59:25;99553.94;;;24.74;20.24
65534;BME280;53640;55.838;37.184;2023-06-14T09:01:53;99527.25;;;24.78;19.42
65534;BME280;53640;55.838;37.184;2023-06-14T09:04:23;99550.50;;;25.05;19.88
65534;BME280;53640;55.838;37.184;2023-06-14T09:06:56;99513.06;;;25.07;19.55
65534;BME280;53640;55.838;37.184;2023-06-14T09:09:24;99487.31;;;25.07;19.82
65534;BME280;53640;55.838;37.184;2023-06-14T09:11:52;99529.94;;;25.47;19.18
65534;BME280;53640;55.838;37.184;2023-06-14T09:14:19;99523.88;;;25.67;19.19
65534;BME280;53640;55.838;37.184;2023-06-14T09:16:46;99508.84;;;25.82;19.08
65534;BME280;53640;55.838;37.184;2023-06-14T09:19:23;99500.72;;;25.86;19.04
65534;BME280;53640;55.838;37.184;2023-06-14T09:21:52;99483.50;;;25.75;18.36
65534;BME280;53640;55.838;37.184;2023-06-14T09:24:19;99522.81;;;26.22;18.56
65534;BME280;53640;55.838;37.184;2023-06-14T09:26:50;99520.13;;;26.39;18.07
65534;BME280;53640;55.838;37.184;2023-06-14T09:29:18;99514.28;;;26.50;17.86
65534;BME280;53640;55.838;37.184;2023-06-14T09:31:47;99516.78;;;26.60;17.92
65534;BME280;53640;55.838;37.184;2023-06-14T09:34:13;99520.59;;;26.81;17.83
65534;BME280;53640;55.838;37.184;2023-06-14T09:36:43;99508.28;;;27.05;17.88
65534;BME280;53640;55.838;37.184;2023-06-14T09:39:10;99521.22;;;27.35;17.35
65534;BME280;53640;55.838;37.184;2023-06-14T09:41:40;99498.63;;;27.37;17.11
65534;BME280;53640;55.838;37.184;2023-06-14T09:44:08;99511.72;;;27.80;16.69
65534;BME280;53640;55.838;37.184;2023-06-14T09:46:35;99520.53;;;28.08;16.46
65534;BME280;53640;55.838;37.184;2023-06-14T09:49:03;99511.59;;;28.32;16.35
65534;BME280;53640;55.838;37.184;2023-06-14T09:51:32;99505.81;;;28.46;16.40
65534;BME280;53640;55.838;37.184;2023-06-14T09:54:03;99518.69;;;28.68;16.07
65534;BME280;53640;55.838;37.184;2023-06-14T09:56:45;99510.50;;;28.63;15.49
65534;BME280;53640;55.838;37.184;2023-06-14T09:59:16;99462.53;;;28.57;15.37
65534;BME280;53640;55.838;37.184;2023-06-14T10:01:47;99510.19;;;28.94;15.70
65534;BME280;53640;55.838;37.184;2023-06-14T10:04:15;99504.53;;;28.81;15.68
65534;BME280;53640;55.838;37.184;2023-06-14T10:06:46;99471.91;;;28.82;15.30
65534;BME280;53640;55.838;37.184;2023-06-14T10:09:13;99500.84;;;29.19;15.25
65534;BME280;53640;55.838;37.184;2023-06-14T10:11:40;99487.78;;;29.32;15.27
65534;BME280;53640;55.838;37.184;2023-06-14T10:14:15;99491.03;;;29.55;14.78
65534;BME280;53640;55.838;37.184;2023-06-14T10:19:27;99493.81;;;30.21;14.21
65534;BME280;53640;55.838;37.184;2023-06-14T10:22:21;99486.25;;;30.46;14.22
65534;BME280;53640;55.838;37.184;2023-06-14T10:24:51;99472.94;;;30.52;13.96
65534;BME280;53640;55.838;37.184;2023-06-14T10:27:19;99420.84;;;30.35;13.83
65534;BME280;53640;55.838;37.184;2023-06-14T10:32:21;99479.53;;;30.96;12.77
65534;BME280;53640;55.838;37.184;2023-06-14T10:35:06;99487.06;;;31.20;12.99
65534;BME280;53640;55.838;37.184;2023-06-14T10:37:35;99442.69;;;31.07;13.02
65534;BME280;53640;55.838;37.184;2023-06-14T10:40:39;99471.41;;;31.32;13.08
65534;BME280;53640;55.838;37.184;2023-06-14T10:43:23;99462.94;;;31.16;12.83
65534;BME280;53640;55.838;37.184;2023-06-14T10:46:19;99380.25;;;30.50;13.25
65534;BME280;53640;55.838;37.184;2023-06-14T10:48:56;99439.09;;;31.06;13.56
65534;BME280;53640;55.838;37.184;2023-06-14T10:51:23;99467.63;;;31.40;13.28
65534;BME280;53640;55.838;37.184;2023-06-14T10:53:50;99472.81;;;31.82;12.93
65534;BME280;53640;55.838;37.184;2023-06-14T10:56:33;99454.22;;;31.74;13.06
65534;BME280;53640;55.838;37.184;2023-06-14T10:59:03;99378.44;;;31.22;13.14
65534;BME280;53640;55.838;37.184;2023-06-14T11:04:46;99431.69;;;31.98;12.63
65534;BME280;53640;55.838;37.184;2023-06-14T11:12:48;99366.81;;;31.49;13.14
65534;BME280;53640;55.838;37.184;2023-06-14T11:15:16;99420.13;;;32.00;11.62
65534;BME280;53640;55.838;37.184;2023-06-14T11:17:54;99439.38;;;32.33;12.07
65534;BME280;53640;55.838;37.184;2023-06-14T11:20:25;99416.22;;;32.52;11.67
65534;BME280;53640;55.838;37.184;2023-06-14T11:22:53;99450.72;;;32.72;12.12
65534;BME280;53640;55.838;37.184;2023-06-14T11:25:21;99451.31;;;32.61;11.90
65534;BME280;53640;55.838;37.184;2023-06-14T11:27:49;99406.47;;;32.46;12.14
65534;BME280;53640;55.838;37.184;2023-06-14T11:30:21;99383.88;;;32.54;11.93
65534;BME280;53640;55.838;37.184;2023-06-14T11:33:20;99443.94;;;33.08;11.84
65534;BME280;53640;55.838;37.184;2023-06-14T11:35:49;99426.50;;;32.99;12.61
65534;BME280;53640;55.838;37.184;2023-06-14T11:38:16;99422.69;;;33.07;12.31
65534;BME280;53640;55.838;37.184;2023-06-14T11:40:44;99431.25;;;33.33;11.90
65534;BME280;53640;55.838;37.184;2023-06-14T11:43:11;99425.13;;;33.47;12.07
65534;BME280;53640;55.838;37.184;2023-06-14T11:45:39;99421.25;;;33.55;11.74
65534;BME280;53640;55.838;37.184;2023-06-14T11:48:06;99413.34;;;33.61;11.63
65534;BME280;53640;55.838;37.184;2023-06-14T11:50:37;99394.19;;;33.67;11.72
65534;BME280;53640;55.838;37.184;2023-06-14T11:53:04;99412.59;;;33.83;11.90
65534;BME280;53640;55.838;37.184;2023-06-14T11:55:39;99411.84;;;33.86;11.77
65534;BME280;53640;55.838;37.184;2023-06-14T11:58:07;99414.97;;;34.04;11.65
65534;BME280;53640;55.838;37.184;2023-06-14T12:00:38;99404.84;;;34.00;11.62
65534;BME280;53640;55.838;37.184;2023-06-14T12:03:06;99424.69;;;33.88;11.85
65534;BME280;53640;55.838;37.184;2023-06-14T12:05:34;99425.16;;;33.90;11.90
65534;BME280;53640;55.838;37.184;2023-06-14T12:08:02;99330.47;;;33.67;11.63
65534;BME280;53640;55.838;37.184;2023-06-14T12:10:30;99390.50;;;34.28;11.39
65534;BME280;53640;55.838;37.184;2023-06-14T12:12:59;99380.00;;;34.51;11.49
65534;BME280;53640;55.838;37.184;2023-06-14T12:15:29;99358.78;;;34.27;11.06
65534;BME280;53640;55.838;37.184;2023-06-14T12:17:58;99411.50;;;34.64;10.50
65534;BME280;53640;55.838;37.184;2023-06-14T12:20:29;99369.09;;;34.46;10.78
65534;BME280;53640;55.838;37.184;2023-06-14T12:22:57;99416.34;;;34.94;10.72
65534;BME280;53640;55.838;37.184;2023-06-14T12:25:33;99404.19;;;34.86;10.52
65534;BME280;53640;55.838;37.184;2023-06-14T12:28:08;99373.44;;;34.70;10.73
65534;BME280;53640;55.838;37.184;2023-06-14T12:30:37;99316.94;;;34.52;10.66
65534;BME280;53640;55.838;37.184;2023-06-14T12:33:05;99359.81;;;35.02;10.50
65534;BME280;53640;55.838;37.184;2023-06-14T12:35:32;99368.28;;;35.06;11.04
65534;BME280;53640;55.838;37.184;2023-06-14T12:37:58;99307.97;;;34.70;10.31
65534;BME280;53640;55.838;37.184;2023-06-14T12:40:25;99360.69;;;35.10;10.30
65534;BME280;53640;55.838;37.184;2023-06-14T12:42:54;99332.34;;;34.92;10.91
65534;BME280;53640;55.838;37.184;2023-06-14T12:45:21;99328.16;;;34.79;10.25
65534;BME280;53640;55.838;37.184;2023-06-14T12:47:56;99281.69;;;34.28;10.72
65534;BME280;53640;55.838;37.184;2023-06-14T12:50:24;99315.03;;;34.60;10.80
65534;BME280;53640;55.838;37.184;2023-06-14T12:52:51;99380.75;;;35.09;10.65
65534;BME280;53640;55.838;37.184;2023-06-14T12:55:18;99375.31;;;34.63;10.78
65534;BME280;53640;55.838;37.184;2023-06-14T12:57:46;99389.84;;;34.15;11.06
65534;BME280;53640;55.838;37.184;2023-06-14T13:00:13;99307.81;;;33.56;11.31
65534;BME280;53640;55.838;37.184;2023-06-14T13:02:40;99300.75;;;33.01;11.01
65534;BME280;53640;55.838;37.184;2023-06-14T13:05:06;99381.50;;;32.76;11.77
65534;BME280;53640;55.838;37.184;2023-06-14T13:07:34;99280.09;;;31.36;12.33
65534;BME280;53640;55.838;37.184;2023-06-14T13:10:01;99358.75;;;31.19;12.27
65534;BME280;53640;55.838;37.184;2023-06-14T13:12:30;99374.84;;;30.69;13.20
65534;BME280;53640;55.838;37.184;2023-06-14T13:14:56;99328.69;;;29.86;13.65
65534;BME280;53640;55.838;37.184;2023-06-14T13:17:23;99297.38;;;29.11;13.99